This is the latest recevied weather packets stored in our database for station/object IW1RID-3. If no packets are shown the sender has not sent any weather packets the latest 1 day(s).
| Time | Temp. | Humidity | Pressure | Rain* | Wind** | Luminosity | Snow |
|---|---|---|---|---|---|---|---|
| 1777788073 | 12.78° C | 53% | 1078.6 hPa | - | - | - | - |
| 1777786868 | 12.22° C | 54% | 1078.4 hPa | - | - | - | - |
| 1777785664 | 11.67° C | 54% | 1078.7 hPa | - | - | - | - |
| 1777784459 | 11.11° C | 56% | 1078.7 hPa | - | - | - | - |
| 1777783254 | 10.56° C | 56% | 1078.6 hPa | - | - | - | - |
| 1777782049 | 11.11° C | 51% | 1078.4 hPa | - | - | - | - |
| 1777780845 | 11.11° C | 51% | 1078.5 hPa | - | - | - | - |
| 1777779640 | 10.56° C | 53% | 1078.5 hPa | - | - | - | - |
| 1777778435 | 10.56° C | 55% | 1078.6 hPa | - | - | - | - |
| 1777777230 | 11.11° C | 54% | 1078.6 hPa | - | - | - | - |
| 1777776025 | 11.11° C | 51% | 1078.7 hPa | - | - | - | - |
| 1777774821 | 11.67° C | 48% | 1078.6 hPa | - | - | - | - |
| 1777773617 | 11.11° C | 50% | 1078.7 hPa | - | - | - | - |
| 1777772411 | 10.56° C | 55% | 1079 hPa | - | - | - | - |
| 1777771207 | 11.11° C | 52% | 1079 hPa | - | - | - | - |
| 1777770002 | 11.67° C | 50% | 1079.1 hPa | - | - | - | - |
| 1777768797 | 11.11° C | 54% | 1079.3 hPa | - | - | - | - |
| 1777767592 | 11.67° C | 54% | 1079.3 hPa | - | - | - | - |
| 1777766388 | 12.22° C | 52% | 1079.3 hPa | - | - | - | - |
| 1777765184 | 11.11° C | 57% | 1079.7 hPa | - | - | - | - |
| 1777763979 | 11.67° C | 57% | 1079.9 hPa | - | - | - | - |
| 1777762774 | 11.67° C | 58% | 1080 hPa | - | - | - | - |
| 1777761569 | 11.67° C | 59% | 1080.1 hPa | - | - | - | - |
| 1777760364 | 12.22° C | 57% | 1080.2 hPa | - | - | - | - |
| 1777759160 | 12.78° C | 56% | 1080.2 hPa | - | - | - | - |
* Rain since midnight (hover to see other rain measurements)
** Current wind speed in m/s (hover to see current wind gust speed)